createdAt,value
2022-07-29T00:00:22.716Z,19.56
2022-07-29T00:01:22.727Z,19.56
2022-07-29T00:02:22.775Z,19.54
2022-07-29T00:03:22.858Z,19.54
2022-07-29T00:04:22.876Z,19.55
2022-07-29T00:05:22.837Z,19.56
2022-07-29T00:06:22.863Z,19.55
2022-07-29T00:07:22.889Z,19.55
2022-07-29T00:08:22.915Z,19.56
2022-07-29T00:09:22.943Z,19.55
2022-07-29T00:10:22.970Z,19.55
2022-07-29T00:11:22.999Z,19.56
2022-07-29T00:12:26.074Z,19.55
2022-07-29T00:13:32.201Z,19.61
2022-07-29T00:14:23.079Z,19.55
2022-07-29T00:15:23.122Z,19.58
2022-07-29T00:16:23.157Z,19.59
2022-07-29T00:17:23.163Z,19.63
2022-07-29T00:18:23.189Z,19.58
2022-07-29T00:19:23.214Z,19.58
2022-07-29T00:20:23.241Z,19.58
2022-07-29T00:21:23.272Z,19.56
2022-07-29T00:22:23.296Z,19.61
2022-07-29T00:23:23.328Z,19.58
2022-07-29T00:24:23.353Z,19.54
2022-07-29T00:25:23.378Z,19.55
2022-07-29T00:26:23.409Z,19.59
2022-07-29T00:27:23.435Z,19.56
2022-07-29T00:28:23.460Z,19.55
2022-07-29T00:29:38.907Z,19.55
2022-07-29T00:30:23.522Z,19.47
2022-07-29T00:31:23.604Z,19.47
2022-07-29T00:32:23.565Z,19.51
2022-07-29T00:33:23.598Z,19.50
2022-07-29T00:34:23.622Z,19.48
2022-07-29T00:35:23.651Z,19.48
2022-07-29T00:36:23.684Z,19.51
2022-07-29T00:37:23.706Z,19.50
2022-07-29T00:38:23.733Z,19.55
2022-07-29T00:39:23.790Z,19.58
2022-07-29T00:40:23.847Z,19.54
2022-07-29T00:41:23.830Z,19.58
2022-07-29T00:42:23.841Z,19.55
2022-07-29T00:43:23.878Z,19.55
2022-07-29T00:44:23.897Z,19.54
2022-07-29T00:45:23.924Z,19.55
2022-07-29T00:46:23.985Z,19.68
2022-07-29T00:47:23.988Z,19.63
2022-07-29T00:48:24.009Z,19.66
2022-07-29T00:49:24.101Z,19.66
2022-07-29T00:50:24.059Z,19.69
2022-07-29T00:51:24.089Z,19.74
2022-07-29T00:52:24.116Z,19.69
2022-07-29T00:53:24.139Z,19.61
2022-07-29T00:54:24.170Z,19.66
2022-07-29T00:55:24.199Z,19.63
2022-07-29T00:56:24.225Z,19.63
2022-07-29T00:57:24.248Z,19.63
2022-07-29T00:58:24.280Z,19.58
2022-07-29T00:59:24.307Z,19.61
2022-07-29T01:00:24.452Z,19.54
2022-07-29T01:01:24.449Z,19.50
2022-07-29T01:02:31.650Z,19.54
2022-07-29T01:05:49.914Z,19.28
2022-07-29T01:06:32.409Z,19.39
2022-07-29T01:08:36.427Z,19.36
2022-07-29T01:09:46.168Z,19.36
2022-07-29T01:11:41.442Z,19.28
2022-07-29T01:12:40.484Z,19.31
2022-07-29T01:14:44.981Z,19.28
2022-07-29T01:15:49.462Z,19.22
2022-07-29T01:17:52.775Z,19.28
2022-07-29T01:18:48.551Z,19.25
2022-07-29T01:20:53.052Z,19.25
2022-07-29T01:21:52.589Z,19.18
2022-07-29T01:23:56.618Z,19.22
2022-07-29T01:24:56.630Z,19.23
2022-07-29T01:26:50.111Z,19.28
2022-07-29T01:27:49.587Z,19.28
2022-07-29T01:29:53.604Z,19.23
2022-07-29T01:30:53.620Z,19.32
2022-07-29T01:32:58.121Z,19.31
2022-07-29T01:33:57.660Z,19.32
2022-07-29T01:36:02.153Z,19.26
2022-07-29T01:37:01.693Z,19.28
2022-07-29T01:39:05.713Z,19.21
2022-07-29T01:40:05.733Z,19.22
2022-07-29T01:42:13.234Z,19.26
2022-07-29T01:43:09.771Z,19.32
2022-07-29T01:45:13.841Z,19.31
2022-07-29T01:46:13.833Z,19.31
2022-07-29T01:47:13.836Z,19.41
2022-07-29T01:48:13.862Z,19.36
2022-07-29T01:49:13.924Z,19.32
2022-07-29T01:50:13.916Z,19.33
2022-07-29T01:51:13.942Z,19.43
2022-07-29T01:52:13.972Z,19.32
2022-07-29T01:53:13.996Z,19.32
2022-07-29T01:54:14.193Z,19.32
2022-07-29T01:55:14.048Z,19.31
2022-07-29T01:56:14.072Z,19.26
2022-07-29T01:57:14.104Z,19.36
2022-07-29T01:58:14.127Z,19.32
2022-07-29T01:59:14.172Z,19.36
2022-07-29T02:00:14.188Z,19.33
2022-07-29T02:01:14.210Z,19.36
2022-07-29T02:02:14.305Z,19.29
2022-07-29T02:03:14.280Z,19.32
2022-07-29T02:04:28.959Z,19.39
2022-07-29T02:05:14.431Z,19.29
2022-07-29T02:06:14.353Z,19.29
2022-07-29T02:07:14.375Z,19.26
2022-07-29T02:08:14.406Z,19.36
2022-07-29T02:09:14.427Z,19.21
2022-07-29T02:10:14.462Z,19.21
2022-07-29T02:11:14.488Z,19.28
2022-07-29T02:12:14.507Z,19.23
2022-07-29T02:13:14.537Z,19.23
2022-07-29T02:14:14.763Z,19.26
2022-07-29T02:15:14.600Z,19.23
2022-07-29T02:16:14.659Z,19.25
2022-07-29T02:17:14.648Z,19.26
2022-07-29T02:18:14.671Z,19.23
2022-07-29T02:19:14.701Z,19.21
2022-07-29T02:20:14.726Z,19.21
2022-07-29T02:21:15.619Z,19.23
2022-07-29T02:22:14.781Z,19.21
2022-07-29T02:23:14.807Z,19.22
2022-07-29T02:24:15.122Z,19.13
2022-07-29T02:25:14.858Z,19.18
2022-07-29T02:26:14.889Z,19.14
2022-07-29T02:27:14.916Z,19.21
2022-07-29T02:28:14.943Z,19.11
2022-07-29T02:29:14.972Z,19.13
2022-07-29T02:30:14.997Z,19.18
2022-07-29T02:31:15.090Z,19.21
2022-07-29T02:32:15.056Z,19.16
2022-07-29T02:33:15.079Z,19.18
2022-07-29T02:34:15.466Z,19.13
2022-07-29T02:35:15.135Z,19.10
2022-07-29T02:36:15.154Z,19.11
2022-07-29T02:37:15.180Z,19.13
2022-07-29T02:38:15.207Z,19.18
2022-07-29T02:39:15.237Z,19.13
2022-07-29T02:40:15.275Z,19.10
2022-07-29T02:41:15.292Z,19.18
2022-07-29T02:42:15.320Z,19.11
2022-07-29T02:43:15.348Z,19.16
2022-07-29T02:44:15.669Z,19.08
2022-07-29T02:45:15.399Z,19.08
2022-07-29T02:46:29.060Z,19.14
2022-07-29T02:47:15.455Z,19.13
2022-07-29T02:48:15.481Z,19.02
2022-07-29T02:49:15.633Z,18.94
2022-07-29T02:50:15.532Z,18.91
2022-07-29T02:51:43.484Z,18.91
2022-07-29T02:52:15.597Z,18.95
2022-07-29T02:53:15.615Z,18.88
2022-07-29T02:54:15.920Z,18.80
2022-07-29T02:55:15.670Z,18.88
2022-07-29T02:56:15.702Z,18.87
2022-07-29T02:57:15.725Z,18.91
2022-07-29T02:58:15.750Z,18.92
2022-07-29T02:59:15.776Z,18.90
2022-07-29T03:00:15.798Z,18.88
2022-07-29T03:01:21.246Z,18.87
2022-07-29T03:02:15.964Z,18.91
2022-07-29T03:03:15.882Z,18.91
2022-07-29T03:04:16.293Z,18.84
2022-07-29T03:05:15.958Z,18.81
2022-07-29T03:06:37.393Z,18.85
2022-07-29T03:07:15.991Z,18.82
2022-07-29T03:08:16.022Z,18.95
2022-07-29T03:09:16.047Z,18.98
2022-07-29T03:10:16.072Z,19.02
2022-07-29T03:11:16.097Z,18.94
2022-07-29T03:12:16.131Z,18.99
2022-07-29T03:13:16.152Z,19.02
2022-07-29T03:14:16.519Z,18.94
2022-07-29T03:15:16.235Z,19.00
2022-07-29T03:16:16.308Z,18.95
2022-07-29T03:17:16.265Z,18.92
2022-07-29T03:18:16.287Z,18.84
2022-07-29T03:19:16.314Z,18.88
2022-07-29T03:20:16.340Z,18.85
2022-07-29T03:21:16.363Z,18.87
2022-07-29T03:22:16.387Z,18.81
2022-07-29T03:23:16.416Z,18.94
2022-07-29T03:24:16.928Z,18.87
2022-07-29T03:25:16.473Z,18.82
2022-07-29T03:26:16.501Z,18.87
2022-07-29T03:27:16.534Z,18.85
2022-07-29T03:28:16.586Z,18.85
2022-07-29T03:29:16.581Z,18.81
2022-07-29T03:30:18.398Z,18.72
2022-07-29T03:31:16.722Z,18.87
2022-07-29T03:32:16.668Z,18.87
2022-07-29T03:33:16.695Z,18.85
2022-07-29T03:34:17.054Z,18.85
2022-07-29T03:35:16.750Z,18.76
2022-07-29T03:36:16.769Z,18.80
2022-07-29T03:37:16.794Z,18.72
2022-07-29T03:38:16.825Z,18.82
2022-07-29T03:39:16.849Z,18.76
2022-07-29T03:40:16.875Z,18.70
2022-07-29T03:41:16.914Z,18.70
2022-07-29T03:42:16.923Z,18.67
2022-07-29T03:43:16.958Z,18.69
2022-07-29T03:44:17.467Z,18.70
2022-07-29T03:45:17.008Z,18.75
2022-07-29T03:46:17.113Z,18.57
2022-07-29T03:47:17.061Z,18.55
2022-07-29T03:48:17.093Z,18.52
2022-07-29T03:49:17.195Z,18.57
2022-07-29T03:50:17.195Z,18.47
2022-07-29T03:51:17.167Z,18.47
2022-07-29T03:52:17.196Z,18.45
2022-07-29T03:53:17.224Z,18.44
2022-07-29T03:54:17.502Z,18.48
2022-07-29T03:55:17.273Z,18.37
2022-07-29T03:56:17.300Z,18.42
2022-07-29T03:57:17.326Z,18.42
2022-07-29T03:58:17.352Z,18.37
2022-07-29T03:59:17.377Z,18.36
2022-07-29T04:00:17.420Z,18.36
2022-07-29T04:01:17.477Z,18.39
2022-07-29T04:02:21.853Z,18.36
2022-07-29T04:03:17.504Z,18.41
2022-07-29T04:04:18.054Z,18.39
2022-07-29T04:05:17.553Z,18.45
2022-07-29T04:06:17.563Z,18.44
2022-07-29T04:07:17.586Z,18.44
2022-07-29T04:08:17.616Z,18.39
2022-07-29T04:09:17.646Z,18.44
2022-07-29T04:10:17.666Z,18.45
2022-07-29T04:11:17.697Z,18.44
2022-07-29T04:12:17.723Z,18.45
2022-07-29T04:13:17.749Z,18.47
2022-07-29T04:14:18.341Z,18.55
2022-07-29T04:15:17.812Z,18.51
2022-07-29T04:16:17.894Z,18.54
2022-07-29T04:17:17.853Z,18.55
2022-07-29T04:18:17.877Z,18.50
2022-07-29T04:19:17.909Z,18.67
2022-07-29T04:20:17.932Z,18.70
2022-07-29T04:21:17.962Z,18.57
2022-07-29T04:22:17.990Z,18.66
2022-07-29T04:23:18.014Z,18.58
2022-07-29T04:24:18.752Z,18.62
2022-07-29T04:25:18.068Z,18.70
2022-07-29T04:26:18.092Z,18.72
2022-07-29T04:27:18.123Z,18.67
2022-07-29T04:28:18.141Z,18.81
2022-07-29T04:29:18.178Z,18.78
2022-07-29T04:30:18.203Z,18.82
2022-07-29T04:31:21.286Z,18.88
2022-07-29T04:32:18.261Z,18.82
2022-07-29T04:33:18.279Z,18.87
2022-07-29T04:34:19.018Z,18.94
2022-07-29T04:35:18.331Z,18.87
2022-07-29T04:36:28.899Z,18.94
2022-07-29T04:37:18.384Z,18.92
2022-07-29T04:38:18.415Z,18.99
2022-07-29T04:39:22.786Z,19.00
2022-07-29T04:40:18.469Z,19.00
2022-07-29T04:41:18.497Z,18.95
2022-07-29T04:42:18.521Z,18.95
2022-07-29T04:43:22.468Z,18.88
2022-07-29T04:44:18.994Z,18.98
2022-07-29T04:45:22.682Z,18.92
2022-07-29T04:46:18.647Z,18.84
2022-07-29T04:47:18.658Z,18.84
2022-07-29T04:48:18.681Z,18.94
2022-07-29T04:49:18.815Z,18.84
2022-07-29T04:50:18.737Z,18.91
2022-07-29T04:51:18.770Z,18.95
2022-07-29T04:52:18.788Z,18.94
2022-07-29T04:53:18.837Z,19.02
2022-07-29T04:54:19.333Z,18.95
2022-07-29T04:55:18.876Z,18.99
2022-07-29T04:56:18.901Z,18.94
2022-07-29T04:57:18.928Z,18.92
2022-07-29T04:58:18.959Z,19.00
2022-07-29T04:59:18.972Z,19.10
2022-07-29T05:00:19.007Z,19.22
2022-07-29T05:01:19.108Z,19.36
2022-07-29T05:02:19.087Z,19.28
2022-07-29T05:03:19.086Z,19.28
2022-07-29T05:04:19.974Z,19.21
2022-07-29T05:05:19.137Z,19.22
2022-07-29T05:06:19.167Z,19.21
2022-07-29T05:07:19.189Z,19.26
2022-07-29T05:08:19.223Z,19.26
2022-07-29T05:09:19.246Z,19.31
2022-07-29T05:10:19.276Z,19.18
2022-07-29T05:11:21.826Z,19.18
2022-07-29T05:12:19.325Z,19.26
2022-07-29T05:13:19.358Z,19.22
2022-07-29T05:14:19.995Z,19.14
2022-07-29T05:15:19.408Z,19.18
2022-07-29T05:16:19.470Z,19.23
2022-07-29T05:17:19.463Z,19.28
2022-07-29T05:18:19.489Z,19.25
2022-07-29T05:19:19.516Z,19.25
2022-07-29T05:20:19.543Z,19.32
2022-07-29T05:21:19.574Z,19.32
2022-07-29T05:22:19.600Z,19.37
2022-07-29T05:23:19.627Z,19.32
2022-07-29T05:24:20.112Z,19.29
2022-07-29T05:25:19.679Z,19.32
2022-07-29T05:26:19.704Z,19.32
2022-07-29T05:27:19.735Z,19.36
2022-07-29T05:28:19.764Z,19.46
2022-07-29T05:29:43.983Z,19.43
2022-07-29T05:30:19.814Z,19.47
2022-07-29T05:31:19.947Z,19.46
2022-07-29T05:32:19.868Z,19.47
2022-07-29T05:33:35.022Z,19.48
2022-07-29T05:34:19.929Z,19.54
2022-07-29T05:35:19.951Z,19.54
2022-07-29T05:36:19.979Z,19.58
2022-07-29T05:37:20.011Z,19.61
2022-07-29T05:38:20.033Z,19.62
2022-07-29T05:39:20.065Z,19.68
2022-07-29T05:40:20.090Z,19.71
2022-07-29T05:41:20.118Z,19.73
2022-07-29T05:42:20.146Z,19.74
2022-07-29T05:43:20.175Z,19.87
2022-07-29T05:44:20.204Z,19.95
2022-07-29T05:45:20.233Z,19.96
2022-07-29T05:46:20.315Z,20.01
2022-07-29T05:47:20.287Z,20.01
2022-07-29T05:48:20.313Z,20.13
2022-07-29T05:49:26.760Z,20.11
2022-07-29T05:50:20.366Z,20.23
2022-07-29T05:51:20.390Z,20.18
2022-07-29T05:52:20.418Z,20.21
2022-07-29T05:53:21.067Z,20.28
2022-07-29T05:54:20.478Z,20.36
2022-07-29T05:55:20.509Z,20.47
2022-07-29T05:56:20.533Z,20.39
2022-07-29T05:57:20.561Z,20.57
2022-07-29T05:58:20.590Z,20.61
2022-07-29T05:59:20.617Z,20.58
2022-07-29T06:00:20.646Z,20.70
2022-07-29T06:01:20.752Z,20.70
2022-07-29T06:02:20.707Z,20.74
2022-07-29T06:03:20.733Z,20.72
2022-07-29T06:04:21.256Z,20.79
2022-07-29T06:05:20.789Z,20.91
2022-07-29T06:06:20.816Z,20.97
2022-07-29T06:07:20.847Z,21.06
2022-07-29T06:08:20.873Z,21.12
2022-07-29T06:09:20.905Z,21.16
2022-07-29T06:10:20.963Z,21.21
2022-07-29T06:11:20.959Z,21.25
2022-07-29T06:12:20.991Z,21.32
2022-07-29T06:13:21.019Z,21.34
2022-07-29T06:14:21.050Z,21.40
2022-07-29T06:15:21.084Z,21.42
2022-07-29T06:16:30.014Z,21.54
2022-07-29T06:17:21.135Z,21.62
2022-07-29T06:18:21.160Z,21.71
2022-07-29T06:19:21.193Z,21.92
2022-07-29T06:20:26.930Z,22.05
2022-07-29T06:21:21.253Z,22.24
2022-07-29T06:22:21.282Z,22.40
2022-07-29T06:23:21.307Z,22.61
2022-07-29T06:24:21.346Z,22.75
2022-07-29T06:25:21.369Z,22.85
2022-07-29T06:26:31.416Z,22.85
2022-07-29T06:27:21.428Z,22.85
2022-07-29T06:28:21.461Z,22.86
2022-07-29T06:29:21.494Z,22.82
2022-07-29T06:30:21.521Z,22.65
2022-07-29T06:31:21.609Z,22.68
2022-07-29T06:32:23.005Z,22.75
2022-07-29T06:33:21.611Z,22.62
2022-07-29T06:34:21.642Z,22.55
2022-07-29T06:35:39.066Z,22.51
2022-07-29T06:36:22.951Z,22.45
2022-07-29T06:37:21.733Z,22.45
2022-07-29T06:38:31.557Z,22.27
2022-07-29T06:39:21.922Z,22.30
2022-07-29T06:40:21.819Z,22.27
2022-07-29T06:41:21.851Z,22.24
2022-07-29T06:42:21.880Z,22.09
2022-07-29T06:43:21.921Z,22.20
2022-07-29T06:44:21.944Z,22.14
2022-07-29T06:45:21.967Z,22.18
2022-07-29T06:46:22.203Z,22.30
2022-07-29T06:47:22.025Z,22.49
2022-07-29T06:48:22.063Z,22.62
2022-07-29T06:49:22.129Z,22.86
2022-07-29T06:50:22.124Z,23.05
2022-07-29T06:51:23.301Z,23.22
2022-07-29T06:52:22.181Z,23.38
2022-07-29T06:53:22.212Z,23.46
2022-07-29T06:54:22.256Z,23.47
2022-07-29T06:55:24.966Z,23.55
2022-07-29T06:56:22.307Z,23.46
2022-07-29T06:57:22.335Z,23.53
2022-07-29T06:58:22.364Z,23.73
2022-07-29T06:59:30.782Z,23.65
2022-07-29T07:00:22.433Z,23.76
2022-07-29T07:01:22.534Z,23.73
2022-07-29T07:02:22.553Z,23.78
2022-07-29T07:03:22.526Z,23.76
2022-07-29T07:04:29.731Z,23.80
2022-07-29T07:06:16.053Z,23.80
2022-07-29T07:07:15.534Z,23.80
2022-07-29T07:09:19.571Z,23.73
2022-07-29T07:10:19.594Z,23.75
2022-07-29T07:12:24.091Z,23.70
2022-07-29T07:13:23.665Z,23.70
2022-07-29T07:15:39.073Z,23.73
2022-07-29T07:16:27.736Z,23.78
2022-07-29T07:18:32.210Z,23.85
2022-07-29T07:19:31.797Z,23.91
2022-07-29T07:21:36.268Z,23.70
2022-07-29T07:22:38.918Z,23.72
2022-07-29T07:24:39.864Z,23.97
2022-07-29T07:25:39.882Z,23.98
2022-07-29T07:27:44.381Z,24.13
2022-07-29T07:28:43.941Z,24.20
2022-07-29T07:29:44.241Z,24.18
2022-07-29T07:30:44.015Z,24.30
2022-07-29T07:31:44.105Z,24.35
2022-07-29T07:32:44.067Z,24.37
2022-07-29T07:33:44.098Z,24.15
2022-07-29T07:34:44.126Z,24.10
2022-07-29T07:35:44.164Z,24.00
2022-07-29T07:36:44.191Z,23.84
2022-07-29T07:37:44.222Z,23.78
2022-07-29T07:38:44.258Z,23.70
2022-07-29T07:39:44.286Z,23.70
2022-07-29T07:40:44.317Z,23.78
2022-07-29T07:41:44.352Z,23.75
2022-07-29T07:42:44.377Z,23.70
2022-07-29T07:43:44.413Z,23.80
2022-07-29T07:45:10.928Z,23.84
2022-07-29T07:45:44.569Z,23.78
2022-07-29T07:46:44.506Z,23.69
2022-07-29T07:47:44.534Z,23.65
2022-07-29T07:48:44.601Z,23.68
2022-07-29T07:49:44.601Z,23.69
2022-07-29T07:50:44.634Z,23.76
2022-07-29T07:51:44.659Z,23.70
2022-07-29T07:52:44.692Z,23.88
2022-07-29T07:53:44.719Z,23.97
2022-07-29T07:54:44.756Z,24.12
2022-07-29T07:56:09.237Z,24.35
2022-07-29T07:56:44.823Z,24.43
2022-07-29T07:57:44.847Z,24.49
2022-07-29T07:58:44.881Z,24.60
2022-07-29T07:59:44.918Z,24.67
2022-07-29T08:00:45.024Z,24.67
2022-07-29T08:01:47.794Z,24.69
2022-07-29T08:02:45.048Z,24.76
2022-07-29T08:03:45.039Z,24.77
2022-07-29T08:04:45.069Z,24.96
2022-07-29T08:05:45.103Z,25.06
2022-07-29T08:06:45.141Z,25.03
2022-07-29T08:07:45.164Z,25.15
2022-07-29T08:08:45.195Z,25.10
2022-07-29T08:09:45.229Z,25.23
2022-07-29T08:10:45.261Z,25.21
2022-07-29T08:11:51.614Z,25.18
2022-07-29T08:12:45.327Z,25.20
2022-07-29T08:13:45.357Z,25.25
2022-07-29T08:14:45.383Z,25.28
2022-07-29T08:15:45.421Z,25.33
2022-07-29T08:16:45.568Z,25.32
2022-07-29T08:17:45.502Z,25.30
2022-07-29T08:18:45.515Z,25.25
2022-07-29T08:19:45.545Z,25.28
2022-07-29T08:20:45.576Z,25.32
2022-07-29T08:21:45.617Z,25.39
2022-07-29T08:22:45.645Z,25.35
2022-07-29T08:23:49.653Z,25.45
2022-07-29T08:24:45.705Z,25.47
2022-07-29T08:25:45.786Z,25.52
2022-07-29T08:26:45.772Z,25.65
2022-07-29T08:27:45.809Z,25.54
2022-07-29T08:28:45.834Z,25.61
2022-07-29T08:29:45.874Z,25.67
2022-07-29T08:30:45.902Z,25.65
2022-07-29T08:31:45.951Z,25.64
2022-07-29T08:32:54.824Z,25.62
2022-07-29T08:33:46.000Z,25.72
2022-07-29T08:34:46.034Z,25.57
2022-07-29T08:35:46.067Z,25.47
2022-07-29T08:36:46.096Z,25.55
2022-07-29T08:37:46.127Z,25.57
2022-07-29T08:38:46.156Z,25.58
2022-07-29T08:39:46.191Z,25.64
2022-07-29T08:40:46.247Z,25.65
2022-07-29T08:41:57.411Z,25.77
2022-07-29T08:42:46.290Z,25.77
2022-07-29T08:43:46.321Z,25.80
2022-07-29T08:44:46.352Z,25.75
2022-07-29T08:45:48.212Z,25.73
2022-07-29T08:46:46.442Z,25.80
2022-07-29T08:47:46.451Z,25.98
2022-07-29T08:48:46.553Z,26.06
2022-07-29T08:49:46.516Z,26.28
2022-07-29T08:50:46.775Z,26.36
2022-07-29T08:51:49.686Z,26.47
2022-07-29T08:52:46.613Z,26.65
2022-07-29T08:53:46.649Z,26.76
2022-07-29T08:54:46.681Z,26.85
2022-07-29T08:55:46.714Z,26.89
2022-07-29T08:56:46.748Z,26.87
2022-07-29T08:57:51.898Z,26.70
2022-07-29T08:58:50.699Z,26.65
2022-07-29T08:59:46.845Z,26.58
2022-07-29T09:00:46.945Z,26.54
2022-07-29T09:01:46.953Z,26.65
2022-07-29T09:02:46.999Z,26.63
2022-07-29T09:03:47.017Z,26.60
2022-07-29T09:04:47.011Z,26.51
2022-07-29T09:05:48.311Z,26.36
2022-07-29T09:06:47.076Z,26.32
2022-07-29T09:07:47.151Z,26.35
2022-07-29T09:08:47.140Z,26.47
2022-07-29T09:09:47.174Z,26.37
2022-07-29T09:10:47.216Z,26.26
2022-07-29T09:11:47.237Z,26.32
2022-07-29T09:12:47.279Z,26.33
2022-07-29T09:13:47.307Z,26.33
2022-07-29T09:14:47.338Z,26.23
2022-07-29T09:15:47.402Z,26.13
2022-07-29T09:16:59.642Z,26.18
2022-07-29T09:17:47.536Z,26.09
2022-07-29T09:18:47.473Z,26.07
2022-07-29T09:19:47.504Z,26.07
2022-07-29T09:20:47.538Z,26.12
2022-07-29T09:21:47.570Z,26.21
2022-07-29T09:22:47.602Z,26.30
2022-07-29T09:23:47.635Z,26.29
2022-07-29T09:24:47.673Z,26.36
2022-07-29T09:25:47.698Z,26.47
2022-07-29T09:26:47.735Z,26.54
2022-07-29T09:27:47.763Z,26.65
2022-07-29T09:28:47.875Z,26.57
2022-07-29T09:29:47.833Z,26.63
2022-07-29T09:30:47.867Z,26.62
2022-07-29T09:31:47.985Z,26.72
2022-07-29T09:32:47.933Z,26.69
2022-07-29T09:33:47.964Z,26.66
2022-07-29T09:34:48.000Z,26.75
2022-07-29T09:35:56.534Z,26.82
2022-07-29T09:36:48.068Z,26.81
2022-07-29T09:37:48.099Z,26.76
2022-07-29T09:38:48.127Z,26.87
2022-07-29T09:39:48.167Z,27.00
2022-07-29T09:40:48.196Z,27.10
2022-07-29T09:41:48.230Z,27.25
2022-07-29T09:42:48.264Z,27.27
2022-07-29T09:43:48.295Z,27.39
2022-07-29T09:44:48.330Z,27.50
2022-07-29T09:45:48.365Z,27.63
2022-07-29T09:46:48.526Z,27.77
2022-07-29T09:47:48.432Z,27.92
2022-07-29T09:48:48.502Z,27.93
2022-07-29T09:49:48.504Z,27.94
2022-07-29T09:50:48.540Z,27.93
2022-07-29T09:51:48.564Z,28.07
2022-07-29T09:52:48.609Z,28.00
2022-07-29T09:53:48.639Z,28.00
2022-07-29T09:54:48.672Z,28.06
2022-07-29T09:55:48.703Z,28.15
2022-07-29T09:56:48.740Z,28.14
2022-07-29T09:57:48.783Z,28.12
2022-07-29T09:58:48.803Z,28.14
2022-07-29T09:59:49.955Z,28.04
2022-07-29T10:00:48.943Z,28.12
2022-07-29T10:01:48.907Z,27.92
2022-07-29T10:02:48.950Z,27.87
2022-07-29T10:03:49.031Z,27.93
2022-07-29T10:04:49.014Z,27.82
2022-07-29T10:05:49.045Z,27.81
2022-07-29T10:06:49.075Z,27.67
2022-07-29T10:07:53.464Z,27.69
2022-07-29T10:08:49.147Z,27.69
2022-07-29T10:09:49.182Z,27.70
2022-07-29T10:10:49.230Z,27.87
2022-07-29T10:11:49.981Z,27.84
2022-07-29T10:12:49.287Z,28.00
2022-07-29T10:13:49.322Z,28.03
2022-07-29T10:14:49.352Z,28.03
2022-07-29T10:15:49.425Z,28.03
2022-07-29T10:16:49.417Z,27.97
2022-07-29T10:17:49.450Z,28.00
2022-07-29T10:18:49.488Z,28.17
2022-07-29T10:19:49.515Z,28.12
2022-07-29T10:20:49.552Z,28.24
2022-07-29T10:21:49.591Z,28.17
2022-07-29T10:22:53.945Z,28.14
2022-07-29T10:23:49.659Z,28.06
2022-07-29T10:24:49.723Z,27.93
2022-07-29T10:25:49.720Z,27.94
2022-07-29T10:26:49.753Z,27.79
2022-07-29T10:27:49.789Z,27.85
2022-07-29T10:28:49.823Z,27.67
2022-07-29T10:29:49.853Z,27.66
2022-07-29T10:30:49.888Z,27.65
2022-07-29T10:31:49.976Z,27.78
2022-07-29T10:32:53.829Z,27.81
2022-07-29T10:33:49.992Z,27.81
2022-07-29T10:34:50.030Z,27.88
2022-07-29T10:35:50.055Z,27.99
2022-07-29T10:36:50.094Z,28.07
2022-07-29T10:37:50.125Z,28.12
2022-07-29T10:38:50.161Z,28.22
2022-07-29T10:39:50.210Z,28.34
2022-07-29T10:40:50.227Z,28.39
2022-07-29T10:41:50.262Z,28.36
2022-07-29T10:42:50.301Z,28.49
2022-07-29T10:43:51.277Z,28.52
2022-07-29T10:44:50.372Z,28.48
2022-07-29T10:45:50.398Z,28.66
2022-07-29T10:46:50.474Z,28.62
2022-07-29T10:47:50.466Z,28.64
2022-07-29T10:48:50.538Z,28.56
2022-07-29T10:49:50.535Z,28.54
2022-07-29T10:50:50.568Z,28.46
2022-07-29T10:51:50.599Z,28.44
2022-07-29T10:52:50.641Z,28.40
2022-07-29T10:53:51.039Z,28.25
2022-07-29T10:54:50.702Z,28.37
2022-07-29T10:55:50.738Z,28.36
2022-07-29T10:56:50.773Z,28.41
2022-07-29T10:57:57.687Z,28.39
2022-07-29T10:58:52.706Z,28.52
2022-07-29T10:59:53.050Z,28.55
2022-07-29T11:00:50.913Z,28.56
2022-07-29T11:01:53.657Z,28.51
2022-07-29T11:02:51.210Z,28.48
2022-07-29T11:03:53.825Z,28.51
2022-07-29T11:04:51.048Z,28.54
2022-07-29T11:05:51.081Z,28.51
2022-07-29T11:06:51.116Z,28.62
2022-07-29T11:07:51.151Z,28.59
2022-07-29T11:08:51.181Z,28.48
2022-07-29T11:09:51.213Z,28.51
2022-07-29T11:10:51.261Z,28.66
2022-07-29T11:11:51.577Z,28.61
2022-07-29T11:12:51.320Z,28.49
2022-07-29T11:13:51.350Z,28.49
2022-07-29T11:14:51.395Z,28.54
2022-07-29T11:15:51.423Z,28.64
2022-07-29T11:16:51.457Z,28.61
2022-07-29T11:17:53.006Z,28.68
2022-07-29T11:18:51.529Z,28.66
2022-07-29T11:19:52.322Z,28.71
2022-07-29T11:20:51.592Z,28.73
2022-07-29T11:21:55.135Z,28.76
2022-07-29T11:22:51.665Z,28.67
2022-07-29T11:23:51.703Z,28.64
2022-07-29T11:24:51.732Z,28.76
2022-07-29T11:25:52.643Z,28.62
2022-07-29T11:26:51.802Z,28.62
2022-07-29T11:27:51.837Z,28.61
2022-07-29T11:28:51.865Z,28.55
2022-07-29T11:29:51.903Z,28.59
2022-07-29T11:30:51.947Z,28.59
2022-07-29T11:31:51.968Z,28.66
2022-07-29T11:32:52.005Z,28.52
2022-07-29T11:33:56.021Z,28.68
2022-07-29T11:34:52.069Z,28.67
2022-07-29T11:36:00.889Z,28.76
2022-07-29T11:36:52.139Z,28.71
2022-07-29T11:38:52.209Z,28.90
2022-07-29T11:39:52.243Z,28.78
2022-07-29T11:40:52.278Z,28.70
2022-07-29T11:41:52.307Z,28.64
2022-07-29T11:42:52.578Z,28.66
2022-07-29T11:43:52.391Z,28.56
2022-07-29T11:44:52.415Z,28.41
2022-07-29T11:45:52.446Z,28.52
2022-07-29T11:46:53.928Z,28.33
2022-07-29T11:47:52.602Z,28.31
2022-07-29T11:48:52.597Z,28.34
2022-07-29T11:49:52.584Z,28.30
2022-07-29T11:50:52.639Z,28.33
2022-07-29T11:51:52.657Z,28.24
2022-07-29T11:52:52.701Z,28.33
2022-07-29T11:53:52.805Z,28.48
2022-07-29T11:55:52.786Z,28.44
2022-07-29T11:56:52.818Z,28.46
2022-07-29T11:58:03.841Z,28.37
2022-07-29T11:58:52.897Z,28.48
2022-07-29T11:59:52.919Z,28.55
2022-07-29T12:00:52.966Z,28.61
2022-07-29T12:02:06.680Z,28.58
2022-07-29T12:02:53.027Z,28.59
2022-07-29T12:03:53.088Z,28.58
2022-07-29T12:04:53.113Z,28.61
2022-07-29T12:05:53.128Z,28.39
2022-07-29T12:06:53.163Z,28.36
2022-07-29T12:07:03.499Z,28.41
2022-07-29T12:07:53.194Z,28.34
2022-07-29T12:08:53.229Z,28.41
2022-07-29T12:09:53.265Z,28.36
2022-07-29T12:10:53.301Z,28.37
2022-07-29T12:11:53.331Z,28.40
2022-07-29T12:12:53.375Z,28.36
2022-07-29T12:13:53.400Z,28.52
2022-07-29T12:14:53.441Z,28.54
2022-07-29T12:15:53.522Z,28.54
2022-07-29T12:16:53.573Z,28.59
2022-07-29T12:17:53.536Z,28.59
2022-07-29T12:18:53.570Z,28.67
2022-07-29T12:19:53.616Z,28.66
2022-07-29T12:20:53.642Z,28.48
2022-07-29T12:21:56.631Z,28.43
2022-07-29T12:22:53.711Z,28.44
2022-07-29T12:23:53.741Z,28.46
2022-07-29T12:25:02.201Z,28.48
2022-07-29T12:25:53.814Z,28.49
2022-07-29T12:26:53.841Z,28.59
2022-07-29T12:27:53.874Z,28.68
2022-07-29T12:28:54.743Z,28.77
2022-07-29T12:29:53.944Z,28.61
2022-07-29T12:30:53.977Z,28.49
2022-07-29T12:31:54.037Z,28.49
2022-07-29T12:32:54.051Z,28.37
2022-07-29T12:33:54.080Z,28.52
2022-07-29T12:34:54.126Z,28.52
2022-07-29T12:36:06.169Z,28.55
2022-07-29T12:36:54.182Z,28.48
2022-07-29T12:37:54.212Z,28.59
2022-07-29T12:38:54.252Z,28.48
2022-07-29T12:39:54.283Z,28.40
2022-07-29T12:40:54.322Z,28.54
2022-07-29T12:41:54.351Z,28.43
2022-07-29T12:42:54.414Z,28.44
2022-07-29T12:43:54.421Z,28.46
2022-07-29T12:44:54.451Z,28.41
2022-07-29T12:45:54.488Z,28.37
2022-07-29T12:46:54.597Z,28.33
2022-07-29T12:47:54.558Z,28.31
2022-07-29T12:48:54.635Z,28.34
2022-07-29T12:49:54.623Z,28.36
2022-07-29T12:50:54.663Z,28.31
2022-07-29T12:51:55.004Z,28.37
2022-07-29T12:52:54.725Z,28.30
2022-07-29T12:53:54.760Z,28.33
2022-07-29T12:54:54.793Z,28.34
2022-07-29T12:55:54.826Z,28.43
2022-07-29T12:56:54.863Z,28.48
2022-07-29T12:57:54.896Z,28.51
2022-07-29T12:58:54.927Z,28.51
2022-07-29T12:59:55.024Z,28.64
2022-07-29T13:00:55.055Z,28.59
2022-07-29T13:01:55.253Z,28.56
2022-07-29T13:02:55.137Z,28.62
2022-07-29T13:03:57.380Z,28.55
2022-07-29T13:04:55.134Z,28.49
2022-07-29T13:05:55.163Z,28.52
2022-07-29T13:06:55.198Z,28.51
2022-07-29T13:07:57.346Z,28.54
2022-07-29T13:08:55.290Z,28.48
2022-07-29T13:09:55.303Z,28.33
2022-07-29T13:10:55.331Z,28.34
2022-07-29T13:11:55.366Z,28.36
2022-07-29T13:12:55.401Z,28.25
2022-07-29T13:14:06.544Z,28.29
2022-07-29T13:14:55.487Z,28.36
2022-07-29T13:15:55.504Z,28.36
2022-07-29T13:16:55.619Z,28.29
2022-07-29T13:17:55.568Z,28.33